Time;durP1;ratioP1;P1;durP2;ratioP2;P2;SDS_P1;SDS_P2;PMS_P1;PMS_P2;Temp;Humidity;BMP_temperature;BMP_pressure;BME280_temperature;BME280_humidity;BME280_pressure;Samples;Min_cycle;Max_cycle;Signal;HPM_P1;HPM_P2
2022/10/26 00:02:17;;;;;;;10.02;2.40;;;14.20;99.90;;;;;;5092029;28;20111;-62
2022/10/26 00:04:43;;;;;;;11.82;2.80;;;14.30;99.90;;;;;;5092344;28;20048;-62
2022/10/26 00:07:09;;;;;;;10.07;2.50;;;14.20;99.90;;;;;;5092077;28;20496;-62
2022/10/26 00:09:34;;;;;;;7.50;2.38;;;14.10;99.90;;;;;;5091913;28;20115;-63
2022/10/26 00:12:00;;;;;;;9.00;2.40;;;14.00;99.90;;;;;;5091569;28;20050;-62
2022/10/26 00:14:26;;;;;;;7.32;2.33;;;13.90;99.90;;;;;;5091872;28;20036;-62
2022/10/26 00:16:51;;;;;;;8.98;2.30;;;13.70;99.90;;;;;;5090618;28;20025;-62
2022/10/26 00:19:17;;;;;;;8.50;2.50;;;13.80;99.90;;;;;;5092223;28;20108;-62
2022/10/26 00:21:43;;;;;;;8.07;2.30;;;13.60;99.90;;;;;;5091994;28;20024;-62
2022/10/26 00:24:11;;;;;;;8.95;2.60;;;13.60;99.90;;;;;;5091598;28;20068;-63
2022/10/26 00:26:37;;;;;;;6.35;2.20;;;13.60;99.90;;;;;;5091676;28;20506;-62
2022/10/26 00:29:03;;;;;;;9.60;2.40;;;13.50;99.90;;;;;;5091799;28;20024;-62
2022/10/26 00:31:28;;;;;;;7.85;2.40;;;13.50;99.90;;;;;;5092258;28;20035;-62
2022/10/26 00:33:55;;;;;;;8.15;2.58;;;13.40;99.90;;;;;;5091631;28;20032;-62
2022/10/26 00:36:21;;;;;;;5.80;2.30;;;13.50;99.90;;;;;;5091777;28;20509;-62
2022/10/26 00:38:55;;;;;;;8.93;2.65;;;13.40;99.90;;;;;;5091200;28;20109;-62
2022/10/26 00:41:23;;;;;;;8.25;2.63;;;13.50;99.90;;;;;;5091635;28;20149;-62
2022/10/26 00:43:49;;;;;;;9.68;2.97;;;13.50;99.90;;;;;;5092119;28;20095;-62
2022/10/26 00:46:42;;;;;;;10.15;2.72;;;13.40;99.90;;;;;;5091694;28;20035;-62
2022/10/26 00:49:14;;;;;;;7.85;2.22;;;13.30;99.90;;;;;;5092762;28;20076;-62
2022/10/26 00:51:58;;;;;;;7.22;2.65;;;13.30;99.90;;;;;;5095637;28;20105;-62
2022/10/26 00:54:24;;;;;;;;;;;13.20;99.90;;;;;;5095652;28;20418;-62
2022/10/26 00:56:53;;;;;;;13.32;2.60;;;13.10;99.90;;;;;;5095458;28;19904;-62
2022/10/26 00:59:21;;;;;;;7.93;2.78;;;13.10;99.90;;;;;;5095414;28;20092;-62
2022/10/26 01:01:48;;;;;;;8.77;2.40;;;13.10;99.90;;;;;;5095816;28;20016;-62
2022/10/26 01:04:15;;;;;;;5.00;2.10;;;13.00;99.90;;;;;;5095416;28;20040;-62
2022/10/26 01:06:42;;;;;;;9.93;2.20;;;12.90;99.90;;;;;;5095387;28;20083;-62
2022/10/26 01:09:09;;;;;;;10.77;2.67;;;12.90;99.90;;;;;;5094863;28;20152;-62
2022/10/26 01:11:34;;;;;;;10.05;3.20;;;13.00;99.90;;;;;;5095322;28;20159;-62
2022/10/26 01:14:03;;;;;;;10.60;2.60;;;13.00;99.90;;;;;;5095450;28;20044;-62
2022/10/26 01:16:46;;;;;;;11.07;2.92;;;12.90;99.90;;;;;;5095225;28;20020;-62
2022/10/26 01:19:18;;;;;;;7.53;2.83;;;12.90;99.90;;;;;;5095193;28;20402;-62
2022/10/26 01:21:55;;;;;;;12.50;3.05;;;12.80;99.90;;;;;;5095021;28;20063;-62
2022/10/26 01:24:59;;;;;;;7.22;2.30;;;12.80;99.90;;;;;;5093838;28;20024;-62
2022/10/26 01:27:37;;;;;;;10.50;3.25;;;12.70;99.90;;;;;;5095121;28;20024;-62
2022/10/26 01:30:14;;;;;;;10.20;2.90;;;12.60;99.90;;;;;;5094859;28;20485;-62
2022/10/26 01:32:52;;;;;;;12.65;3.08;;;12.80;99.90;;;;;;5094716;28;20032;-62
2022/10/26 01:35:37;;;;;;;9.98;2.70;;;12.60;99.90;;;;;;5093313;28;20031;-62
2022/10/26 01:38:08;;;;;;;8.90;2.80;;;12.60;99.90;;;;;;5094591;28;20016;-62
2022/10/26 01:40:40;;;;;;;7.18;2.45;;;12.30;99.90;;;;;;5094776;28;20052;-62
2022/10/26 01:43:09;;;;;;;9.93;2.78;;;12.30;99.90;;;;;;5095127;28;20440;-62
2022/10/26 01:45:38;;;;;;;9.85;2.47;;;12.40;99.90;;;;;;5094574;28;20044;-61
2022/10/26 01:48:04;;;;;;;6.93;2.45;;;12.20;99.90;;;;;;5094656;28;20042;-62
2022/10/26 01:50:31;;;;;;;9.40;2.83;;;12.60;99.90;;;;;;5094245;28;20024;-62
2022/10/26 01:52:57;;;;;;;13.35;2.40;;;12.60;99.90;;;;;;5094166;28;20020;-62
2022/10/26 01:55:38;;;;;;;8.32;2.55;;;12.40;99.90;;;;;;5094316;28;20381;-62
2022/10/26 01:58:19;;;;;;;9.02;2.58;;;12.30;99.90;;;;;;5094242;28;20058;-62
2022/10/26 02:01:13;;;;;;;10.05;3.15;;;12.40;99.90;;;;;;5094193;28;20035;-62
2022/10/26 02:03:53;;;;;;;7.75;2.55;;;12.60;99.90;;;;;;5092372;28;20123;-62
2022/10/26 02:06:43;;;;;;;8.27;2.75;;;12.30;99.90;;;;;;5091574;28;20032;-62
2022/10/26 02:09:27;;;;;;;11.27;2.80;;;12.20;99.90;;;;;;5092120;28;20123;-62
2022/10/26 02:11:54;;;;;;;8.38;2.55;;;12.10;99.90;;;;;;5091789;28;20032;-62
2022/10/26 02:14:33;;;;;;;9.10;3.03;;;12.20;99.90;;;;;;5091778;28;20036;-61
2022/10/26 02:17:12;;;;;;;9.00;2.78;;;12.40;99.90;;;;;;5091750;28;20028;-62
2022/10/26 02:19:41;;;;;;;10.13;2.95;;;12.40;99.90;;;;;;5091542;28;20552;-62
2022/10/26 02:22:10;;;;;;;6.10;2.28;;;12.30;99.90;;;;;;5091373;28;20047;-62
2022/10/26 02:24:36;;;;;;;8.80;2.80;;;12.40;99.90;;;;;;5091657;28;20032;-62
2022/10/26 02:27:06;;;;;;;9.20;2.40;;;12.30;99.90;;;;;;5091694;28;20362;-62
2022/10/26 02:29:33;;;;;;;10.52;2.58;;;12.20;99.90;;;;;;5091809;28;20032;-62
2022/10/26 02:32:01;;;;;;;12.82;3.05;;;12.10;99.90;;;;;;5091347;28;20077;-62
2022/10/26 02:34:29;;;;;;;10.00;2.83;;;12.10;99.90;;;;;;5091039;28;20043;-62
2022/10/26 02:36:58;;;;;;;11.23;2.88;;;12.10;99.90;;;;;;5091096;28;20031;-62
2022/10/26 02:39:26;;;;;;;8.27;2.50;;;12.00;99.90;;;;;;5090912;28;20044;-61
2022/10/26 02:41:53;;;;;;;7.95;2.75;;;11.70;99.90;;;;;;5093557;28;20021;-62
2022/10/26 02:44:34;;;;;;;9.82;3.38;;;11.70;99.90;;;;;;5093846;28;20028;-62
2022/10/26 02:47:01;;;;;;;10.05;2.97;;;11.80;99.90;;;;;;5093440;28;20117;-61
2022/10/26 02:49:27;;;;;;;11.50;3.13;;;11.70;99.90;;;;;;5092880;28;20055;-62
2022/10/26 02:52:16;;;;;;;9.73;2.92;;;11.60;99.90;;;;;;5093243;28;20081;-62
2022/10/26 02:55:03;;;;;;;10.20;4.15;;;11.50;99.90;;;;;;5090784;28;20040;-61
2022/10/26 02:57:39;;;;;;;7.38;3.10;;;11.90;99.90;;;;;;5090879;28;20178;-62
2022/10/26 03:00:07;;;;;;;6.78;2.70;;;12.70;99.90;;;;;;5090729;28;20043;-62
2022/10/26 03:02:32;;;;;;;8.68;3.00;;;12.40;99.90;;;;;;5090871;28;20064;-61
2022/10/26 03:05:09;;;;;;;8.13;3.15;;;12.40;99.90;;;;;;5090675;28;20052;-61
2022/10/26 03:07:35;;;;;;;6.97;2.60;;;12.20;99.90;;;;;;5091256;28;20093;-61
2022/10/26 03:10:00;;;;;;;8.18;3.22;;;12.00;99.90;;;;;;5090656;28;20525;-62
2022/10/26 03:12:26;;;;;;;8.77;2.92;;;11.90;99.90;;;;;;5089998;28;20470;-61
2022/10/26 03:14:51;;;;;;;9.98;3.10;;;12.00;99.90;;;;;;5073983;28;20094;-62
2022/10/26 03:17:17;;;;;;;9.27;3.20;;;11.90;99.90;;;;;;5090625;28;20364;-62
2022/10/26 03:19:43;;;;;;;7.63;3.05;;;11.90;99.90;;;;;;5090211;28;20032;-62
2022/10/26 03:22:08;;;;;;;7.40;3.15;;;11.70;99.90;;;;;;5090519;28;20032;-62
2022/10/26 03:24:34;;;;;;;9.07;4.20;;;11.50;99.90;;;;;;5090892;28;20036;-62
2022/10/26 03:27:00;;;;;;;9.93;3.30;;;11.70;99.90;;;;;;5090377;28;20486;-62
2022/10/26 03:29:25;;;;;;;7.07;3.15;;;12.00;99.90;;;;;;5090335;28;20028;-62
2022/10/26 03:31:53;;;;;;;7.38;3.30;;;11.90;99.90;;;;;;5091404;28;20514;-61
2022/10/26 03:34:19;;;;;;;8.35;2.70;;;11.80;99.90;;;;;;5091759;28;20058;-61
2022/10/26 03:36:45;;;;;;;9.48;3.08;;;11.60;99.90;;;;;;5092190;28;20129;-62
2022/10/26 03:39:11;;;;;;;8.15;2.85;;;11.40;99.90;;;;;;5091102;28;20042;-62
2022/10/26 03:41:37;;;;;;;9.98;2.72;;;11.40;99.90;;;;;;5092482;28;20035;-62
2022/10/26 03:44:03;;;;;;;6.18;2.78;;;11.40;99.90;;;;;;5092372;28;20053;-62
2022/10/26 03:46:28;;;;;;;8.60;2.70;;;11.40;99.90;;;;;;5092417;28;20441;-62
2022/10/26 03:48:54;;;;;;;8.82;2.75;;;11.30;99.90;;;;;;5091730;28;20099;-62
2022/10/26 03:51:20;;;;;;;9.48;2.90;;;11.30;99.90;;;;;;5092344;28;20055;-62
2022/10/26 03:53:45;;;;;;;11.23;3.30;;;11.20;99.90;;;;;;5091111;28;20068;-62
2022/10/26 03:56:11;;;;;;;11.32;2.88;;;11.20;99.90;;;;;;5092239;28;20020;-62
2022/10/26 03:58:37;;;;;;;6.32;2.40;;;11.30;99.90;;;;;;5091965;28;20043;-61
2022/10/26 04:01:02;;;;;;;10.85;3.10;;;11.80;99.90;;;;;;5092110;28;20108;-62
2022/10/26 04:03:28;;;;;;;5.35;2.38;;;11.60;99.90;;;;;;5092001;28;20059;-61
2022/10/26 04:05:54;;;;;;;6.57;2.40;;;11.60;99.90;;;;;;5092067;28;20054;-61
2022/10/26 04:08:20;;;;;;;5.20;2.25;;;11.70;99.90;;;;;;5092107;28;20085;-62
2022/10/26 04:10:46;;;;;;;9.13;3.30;;;12.20;99.90;;;;;;5092314;28;20035;-61
2022/10/26 04:13:12;;;;;;;7.30;2.88;;;12.00;99.90;;;;;;5091927;28;20410;-61
2022/10/26 04:15:38;;;;;;;7.53;2.70;;;12.10;99.90;;;;;;5091853;28;20031;-61
2022/10/26 04:18:04;;;;;;;6.50;2.53;;;12.30;99.90;;;;;;5091642;28;20473;-61
2022/10/26 04:20:31;;;;;;;8.00;2.70;;;12.40;99.90;;;;;;5092344;28;20518;-62
2022/10/26 04:23:02;;;;;;;4.00;2.08;;;12.40;99.90;;;;;;5091925;28;20024;-62
2022/10/26 04:25:29;;;;;;;10.65;2.97;;;12.40;99.90;;;;;;5095985;28;20432;-62
2022/10/26 04:27:55;;;;;;;8.40;2.85;;;12.50;99.90;;;;;;5096057;28;20024;-62
2022/10/26 04:30:20;;;;;;;6.97;2.10;;;12.50;99.90;;;;;;5095967;28;20508;-62
2022/10/26 04:32:46;;;;;;;11.20;2.90;;;12.80;99.90;;;;;;5095929;28;20474;-61
2022/10/26 04:35:12;;;;;;;8.68;3.17;;;12.80;99.90;;;;;;5095750;28;20090;-62
2022/10/26 04:37:38;;;;;;;11.70;3.10;;;12.70;99.90;;;;;;5095904;28;20497;-62
2022/10/26 04:40:04;;;;;;;10.45;3.15;;;12.60;99.90;;;;;;5096004;28;20577;-62
2022/10/26 04:42:32;;;;;;;7.97;2.97;;;12.70;99.90;;;;;;5095791;28;20382;-61
2022/10/26 04:44:59;;;;;;;8.05;2.55;;;12.80;99.90;;;;;;5095636;28;20024;-62
2022/10/26 04:47:24;;;;;;;5.75;2.35;;;12.70;99.90;;;;;;5095668;28;20102;-62
2022/10/26 04:49:50;;;;;;;7.15;2.72;;;12.70;99.90;;;;;;5095656;28;20123;-62
2022/10/26 04:52:16;;;;;;;6.57;2.80;;;12.70;99.90;;;;;;5095527;28;20031;-62
2022/10/26 04:54:41;;;;;;;4.93;2.30;;;12.70;99.90;;;;;;5095496;28;20040;-61
2022/10/26 04:57:07;;;;;;;5.60;2.20;;;12.80;99.90;;;;;;5095933;28;20020;-62
2022/10/26 04:59:33;;;;;;;6.25;2.65;;;12.80;99.90;;;;;;5095343;28;20081;-61
2022/10/26 05:01:58;;;;;;;9.48;3.35;;;12.80;99.90;;;;;;5095216;28;20016;-62
2022/10/26 05:04:24;;;;;;;7.65;3.05;;;12.60;99.90;;;;;;5095442;28;20532;-62
2022/10/26 05:06:52;;;;;;;7.28;2.83;;;12.40;99.90;;;;;;5095304;28;20028;-62
2022/10/26 05:09:18;;;;;;;8.82;2.63;;;12.50;99.90;;;;;;5095221;28;20101;-62
2022/10/26 05:11:43;;;;;;;7.65;3.00;;;12.60;99.90;;;;;;5095390;28;20421;-62
2022/10/26 05:14:09;;;;;;;8.50;3.00;;;12.50;99.90;;;;;;5095169;28;20043;-63
2022/10/26 05:16:35;;;;;;;10.75;3.00;;;12.50;99.90;;;;;;5095226;28;20031;-61
2022/10/26 05:19:00;;;;;;;8.30;2.85;;;12.60;99.90;;;;;;5095019;28;20032;-62
2022/10/26 05:21:26;;;;;;;8.35;2.83;;;12.60;99.90;;;;;;5095097;28;20028;-62
2022/10/26 05:23:54;;;;;;;6.28;2.42;;;12.50;99.90;;;;;;5095105;28;20020;-62
2022/10/26 05:26:21;;;;;;;8.10;2.70;;;12.50;99.90;;;;;;5095491;28;20097;-62
2022/10/26 05:28:47;;;;;;;7.95;2.85;;;12.50;99.90;;;;;;5094448;28;20028;-61
2022/10/26 05:31:13;;;;;;;5.57;2.42;;;12.40;99.90;;;;;;5094852;28;20486;-62
2022/10/26 05:33:38;;;;;;;10.77;3.03;;;12.40;99.90;;;;;;5094770;28;20044;-62
2022/10/26 05:36:05;;;;;;;6.68;2.53;;;12.50;99.90;;;;;;5094684;28;20028;-62
2022/10/26 05:38:30;;;;;;;7.13;2.30;;;12.90;99.90;;;;;;5094922;28;20478;-61
2022/10/26 05:40:57;;;;;;;9.07;3.03;;;12.90;99.90;;;;;;5094413;28;20047;-62
2022/10/26 05:43:23;;;;;;;7.85;2.97;;;12.90;99.90;;;;;;5094122;28;20032;-62
2022/10/26 05:45:50;;;;;;;9.13;3.05;;;13.10;99.90;;;;;;5095073;28;20024;-61
2022/10/26 05:48:16;;;;;;;6.35;2.42;;;13.00;99.90;;;;;;5094215;28;20063;-62
2022/10/26 05:50:42;;;;;;;5.80;2.42;;;12.90;99.90;;;;;;5094769;28;20016;-62
2022/10/26 05:53:07;;;;;;;10.05;2.92;;;12.70;99.90;;;;;;5094541;28;20097;-62
2022/10/26 05:55:34;;;;;;;7.07;3.25;;;12.50;99.90;;;;;;5094374;28;20024;-62
2022/10/26 05:58:00;;;;;;;8.13;2.60;;;12.40;99.90;;;;;;5094176;28;20089;-61
2022/10/26 06:00:28;;;;;;;6.15;2.55;;;12.60;99.90;;;;;;5094313;28;20028;-62
2022/10/26 06:03:21;;;;;;;5.93;2.58;;;12.60;99.90;;;;;;5094312;28;20016;-61
2022/10/26 06:05:46;;;;;;;7.35;2.70;;;12.40;99.90;;;;;;5094720;28;20032;-62
2022/10/26 06:08:12;;;;;;;7.30;2.60;;;12.10;99.90;;;;;;5094171;28;20024;-62
2022/10/26 06:10:38;;;;;;;5.65;2.22;;;12.10;99.90;;;;;;5094142;28;20535;-62
2022/10/26 06:13:04;;;;;;;6.03;2.03;;;12.90;99.90;;;;;;5093965;28;20046;-61
2022/10/26 06:15:35;;;;;;;4.45;2.15;;;13.50;99.90;;;;;;5093924;28;20390;-62
2022/10/26 06:18:15;;;;;;;5.72;2.20;;;13.60;99.90;;;;;;5094023;28;20443;-62
2022/10/26 06:21:28;;;;;;;6.15;2.22;;;13.20;99.90;;;;;;5093831;28;20462;-61
2022/10/26 06:24:09;;;;;;;4.93;1.80;;;12.60;99.90;;;;;;5091681;28;20438;-61
2022/10/26 06:26:40;;;;;;;4.20;2.13;;;13.70;99.90;;;;;;5091448;28;20040;-61
2022/10/26 06:29:29;;;;;;;5.88;2.30;;;13.90;99.90;;;;;;5091555;28;20032;-62
2022/10/26 06:31:55;;;;;;;4.90;1.90;;;14.40;99.90;;;;;;5091625;28;20034;-61
2022/10/26 06:34:28;;;;;;;5.70;3.17;;;14.40;99.90;;;;;;5091180;28;20414;-62
2022/10/26 06:36:57;;;;;;;7.90;2.90;;;14.40;99.90;;;;;;5091507;28;20040;-62
2022/10/26 06:39:24;;;;;;;7.57;2.65;;;13.90;99.90;;;;;;5091043;28;20036;-62
2022/10/26 06:41:50;;;;;;;8.73;2.90;;;14.10;99.90;;;;;;5091401;28;20024;-62
2022/10/26 06:44:22;;;;;;;7.53;3.33;;;14.10;99.90;;;;;;5090966;28;20043;-60
2022/10/26 06:47:08;;;;;;;8.65;2.85;;;14.40;99.90;;;;;;5090485;28;20040;-62
2022/10/26 06:49:38;;;;;;;11.23;3.40;;;14.70;99.90;;;;;;5090713;28;20107;-62
2022/10/26 06:52:22;;;;;;;11.82;5.00;;;14.50;99.90;;;;;;5090427;28;20024;-61
2022/10/26 06:54:53;;;;;;;12.48;4.05;;;13.90;99.90;;;;;;5090909;28;20028;-62
2022/10/26 06:57:23;;;;;;;10.45;4.35;;;13.70;99.90;;;;;;5090277;28;20495;-62
2022/10/26 06:59:52;;;;;;;12.43;4.90;;;13.80;99.90;;;;;;5092406;28;20558;-62
2022/10/26 07:02:18;;;;;;;6.50;3.20;;;13.80;99.90;;;;;;5093044;28;20063;-62
2022/10/26 07:04:44;;;;;;;8.27;3.33;;;14.20;99.90;;;;;;5093464;28;20053;-62
2022/10/26 07:07:21;;;;;;;7.85;3.10;;;14.10;99.90;;;;;;5092788;28;20119;-62
2022/10/26 07:09:48;;;;;;;7.57;2.80;;;14.30;99.90;;;;;;5092868;28;20072;-62
2022/10/26 07:12:13;;;;;;;8.65;2.88;;;14.30;99.90;;;;;;5092465;28;20020;-62
2022/10/26 07:14:39;;;;;;;6.85;2.90;;;14.60;99.90;;;;;;5093013;28;20564;-62
2022/10/26 07:17:05;;;;;;;5.45;2.67;;;15.30;99.90;;;;;;5092832;28;20519;-62
2022/10/26 07:19:31;;;;;;;9.05;2.90;;;16.30;99.90;;;;;;5093029;28;20031;-62
2022/10/26 07:22:00;;;;;;;8.45;2.53;;;16.80;99.90;;;;;;5092728;28;20150;-61
2022/10/26 07:24:29;;;;;;;5.70;2.60;;;17.40;99.90;;;;;;5092675;28;20042;-61
2022/10/26 07:26:56;;;;;;;7.70;3.10;;;18.50;99.90;;;;;;5092436;28;20032;-62
2022/10/26 07:29:23;;;;;;;8.45;3.25;;;18.30;99.90;;;;;;5092755;28;20098;-61
2022/10/26 07:31:49;;;;;;;6.70;3.10;;;19.20;99.90;;;;;;5092635;28;20364;-62
2022/10/26 07:34:15;;;;;;;11.30;3.65;;;18.80;99.90;;;;;;5092274;28;20042;-62
2022/10/26 07:36:41;;;;;;;9.70;3.40;;;18.60;99.90;;;;;;5092726;28;20031;-61
2022/10/26 07:39:07;;;;;;;7.68;2.90;;;18.80;99.90;;;;;;5092118;28;20478;-61
2022/10/26 07:41:33;;;;;;;6.05;2.50;;;18.10;99.90;;;;;;5091960;28;20454;-62
2022/10/26 07:43:59;;;;;;;6.00;2.40;;;18.20;99.90;;;;;;5092302;28;20077;-62
2022/10/26 07:46:26;;;;;;;4.05;2.20;;;17.70;99.90;;;;;;5092239;28;20514;-61
2022/10/26 07:48:52;;;;;;;6.53;2.42;;;17.10;99.90;;;;;;5092176;28;20024;-62
2022/10/26 07:51:18;;;;;;;6.00;2.78;;;16.80;99.90;;;;;;5092638;28;20136;-62
2022/10/26 07:53:44;;;;;;;7.95;3.10;;;16.60;99.90;;;;;;5091899;28;20071;-61
2022/10/26 07:56:11;;;;;;;7.47;2.55;;;16.80;99.90;;;;;;5092238;28;20567;-61
2022/10/26 07:58:37;;;;;;;4.60;2.55;;;18.10;99.90;;;;;;5092032;28;20030;-61
2022/10/26 08:01:14;;;;;;;7.85;2.72;;;19.20;99.90;;;;;;5092552;28;20024;-62
2022/10/26 08:03:41;;;;;;;7.00;2.80;;;19.70;99.90;;;;;;5092531;28;20487;-61
2022/10/26 08:06:08;;;;;;;6.15;2.88;;;18.60;99.90;;;;;;5092044;28;20028;-62
2022/10/26 08:08:34;;;;;;;7.43;2.70;;;18.00;99.90;;;;;;5091556;28;20103;-61
2022/10/26 08:10:59;;;;;;;8.43;3.00;;;17.70;99.90;;;;;;5092214;28;20099;-62
2022/10/26 08:13:25;;;;;;;5.90;2.88;;;18.80;99.90;;;;;;5092453;28;20036;-62
2022/10/26 08:16:02;;;;;;;9.02;3.45;;;20.80;99.90;;;;;;5092119;28;20031;-62
2022/10/26 08:18:28;;;;;;;6.90;3.35;;;22.30;99.90;;;;;;5092220;28;20039;-62
2022/10/26 08:20:54;;;;;;;6.25;2.70;;;24.10;99.90;;;;;;5092110;28;20020;-61
2022/10/26 08:23:21;;;;;;;6.68;2.72;;;22.70;99.90;;;;;;5091636;28;20051;-61
2022/10/26 08:25:46;;;;;;;6.07;2.70;;;21.00;99.90;;;;;;5092521;28;20027;-61
2022/10/26 08:28:12;;;;;;;9.15;3.28;;;22.30;99.90;;;;;;5091860;28;20024;-61
2022/10/26 08:30:38;;;;;;;8.10;3.17;;;21.50;99.90;;;;;;5091970;28;20091;-62
2022/10/26 08:33:06;;;;;;;9.07;3.25;;;19.80;99.90;;;;;;5091795;28;20028;-62
2022/10/26 08:35:33;;;;;;;8.55;3.08;;;19.20;99.90;;;;;;5091613;28;20441;-61
2022/10/26 08:37:59;;;;;;;5.70;2.70;;;19.20;99.90;;;;;;5091932;28;20103;-62
2022/10/26 08:40:29;;;;;;;4.18;2.40;;;19.40;99.90;;;;;;5091708;28;20194;-62
2022/10/26 08:43:19;;;;;;;6.45;2.60;;;21.40;99.90;;;;;;5091999;28;20032;-61
2022/10/26 08:45:54;;;;;;;5.10;2.25;;;24.40;99.90;;;;;;5092029;28;20024;-61
2022/10/26 08:48:27;;;;;;;6.53;2.72;;;23.10;99.90;;;;;;5091794;28;20024;-61
2022/10/26 08:50:54;;;;;;;;;;;23.20;99.90;;;;;;5092210;28;20039;-61
2022/10/26 08:53:31;;;;;;;5.30;2.65;;;22.20;99.90;;;;;;5091096;28;19953;-61
2022/10/26 08:56:05;;;;;;;5.03;2.47;;;20.60;99.90;;;;;;5091662;28;20047;-61
2022/10/26 08:59:01;;;;;;;4.15;2.42;;;21.60;99.90;;;;;;5092139;28;20038;-61
2022/10/26 09:01:30;;;;;;;5.05;2.50;;;21.50;99.90;;;;;;5091039;28;20421;-60
2022/10/26 09:03:57;;;;;;;5.68;2.72;;;23.20;99.90;;;;;;5091345;28;20405;-61
2022/10/26 09:07:02;;;;;;;8.00;2.83;;;23.50;99.90;;;;;;5091534;28;20162;-61
2022/10/26 09:09:56;;;;;;;4.38;2.35;;;23.50;99.90;;;;;;5089437;28;20048;-61
2022/10/26 09:12:54;;;;;;;7.18;2.55;;;26.40;99.90;;;;;;5093029;28;20035;-61
2022/10/26 09:15:48;;;;;;;7.28;2.40;;;25.10;99.90;;;;;;5012865;28;20125;-61
2022/10/26 09:18:25;;;;;;;9.20;2.85;;;23.10;99.90;;;;;;5012800;28;20513;-62
2022/10/26 09:21:21;;;;;;;7.55;2.65;;;23.20;99.90;;;;;;5012455;28;20509;-61
2022/10/26 09:23:53;;;;;;;6.25;2.63;;;23.00;99.90;;;;;;5012796;28;20488;-61
2022/10/26 09:26:48;;;;;;;4.82;2.50;;;23.20;99.90;;;;;;4996377;28;20496;-62
2022/10/26 09:29:14;;;;;;;4.95;2.42;;;22.60;99.90;;;;;;5012609;28;20536;-61
2022/10/26 09:31:46;;;;;;;6.55;2.60;;;24.40;99.90;;;;;;5012542;28;20108;-61
2022/10/26 09:34:19;;;;;;;4.32;2.28;;;23.40;99.90;;;;;;5012677;28;20052;-61
2022/10/26 09:36:45;;;;;;;5.35;2.30;;;22.50;99.90;;;;;;5012201;28;20045;-62
2022/10/26 09:39:33;;;;;;;7.43;2.42;;;22.50;99.90;;;;;;5012327;28;20505;-61
2022/10/26 09:42:16;;;;;;;9.68;2.70;;;22.50;99.90;;;;;;5012346;28;20037;-61
2022/10/26 09:44:53;;;;;;;6.47;2.27;;;22.50;99.90;;;;;;5012448;28;20030;-61
2022/10/26 09:47:28;;;;;;;4.43;2.13;;;23.00;99.90;;;;;;5028203;28;20785;-62
2022/10/26 09:50:20;;;;;;;5.13;2.47;;;24.10;99.90;;;;;;5032072;28;20032;-62
2022/10/26 09:52:46;;;;;;;7.88;2.33;;;24.20;99.90;;;;;;5078380;28;20047;-62
2022/10/26 09:55:12;;;;;;;5.00;2.30;;;24.60;99.90;;;;;;5094358;28;20024;-62
2022/10/26 09:57:44;;;;;;;5.72;2.38;;;24.90;99.90;;;;;;5094459;28;20028;-61
2022/10/26 10:00:15;;;;;;;3.30;2.15;;;24.50;99.90;;;;;;5094326;28;20024;-61
2022/10/26 10:02:43;;;;;;;3.40;2.03;;;24.50;99.90;;;;;;5094312;28;20028;-61
2022/10/26 10:05:33;;;;;;;6.03;2.50;;;24.70;99.90;;;;;;5093826;28;20209;-61
2022/10/26 10:08:17;;;;;;;4.18;2.47;;;24.60;99.90;;;;;;5093819;28;20028;-62
2022/10/26 10:11:01;;;;;;;5.97;2.60;;;24.90;99.90;;;;;;5094383;28;20382;-61
2022/10/26 10:13:28;;;;;;;;;;;25.30;99.90;;;;;;5094816;28;20036;-62
2022/10/26 10:16:09;;;;;;;5.70;2.45;;;25.90;99.90;;;;;;5094161;28;19911;-61
2022/10/26 10:18:37;;;;;;;4.60;2.15;;;25.80;99.90;;;;;;5094053;28;20028;-61
2022/10/26 10:21:04;;;;;;;5.85;2.25;;;25.10;99.90;;;;;;5093158;28;20035;-61
2022/10/26 10:23:36;;;;;;;3.95;2.00;;;24.70;99.90;;;;;;5094158;28;20111;-61
2022/10/26 10:26:12;;;;;;;4.10;2.15;;;24.70;99.90;;;;;;5093512;28;20058;-61
2022/10/26 10:28:41;;;;;;;5.20;2.10;;;24.60;99.90;;;;;;5093675;28;20024;-61
2022/10/26 10:31:21;;;;;;;5.65;2.40;;;24.50;99.90;;;;;;5093805;28;20111;-61
2022/10/26 10:33:51;;;;;;;5.15;2.10;;;24.70;99.90;;;;;;5093072;28;20040;-62
2022/10/26 10:36:20;;;;;;;5.90;2.33;;;24.60;99.90;;;;;;5093715;28;20028;-61
2022/10/26 10:38:49;;;;;;;3.90;1.90;;;24.10;99.90;;;;;;5094120;28;20036;-61
2022/10/26 10:41:20;;;;;;;5.05;2.17;;;24.60;99.90;;;;;;5093280;28;20052;-61
2022/10/26 10:43:50;;;;;;;5.80;2.42;;;25.00;99.90;;;;;;5093474;28;20032;-61
2022/10/26 10:46:23;;;;;;;3.70;1.90;;;24.90;99.90;;;;;;5093574;28;20020;-61
2022/10/26 10:49:01;;;;;;;4.53;1.95;;;25.30;99.90;;;;;;5092995;28;20415;-61
2022/10/26 10:51:29;;;;;;;6.78;2.80;;;25.40;99.90;;;;;;5093757;28;20100;-61
2022/10/26 10:53:55;;;;;;;5.85;2.22;;;25.10;99.90;;;;;;5093160;28;20043;-61
2022/10/26 10:56:33;;;;;;;5.60;1.92;;;25.20;99.90;;;;;;5093636;28;20448;-61
2022/10/26 10:59:24;;;;;;;5.63;2.00;;;24.90;99.90;;;;;;5093299;28;20366;-61
2022/10/26 11:02:01;;;;;;;6.70;2.20;;;25.00;99.90;;;;;;5093486;28;20135;-61
2022/10/26 11:04:59;;;;;;;6.43;2.22;;;24.80;99.90;;;;;;5092878;28;20103;-61
2022/10/26 11:07:29;;;;;;;4.18;2.13;;;25.40;99.90;;;;;;5090657;28;20046;-61
2022/10/26 11:09:56;;;;;;;3.13;1.92;;;26.00;99.90;;;;;;5090422;28;20111;-61
2022/10/26 11:12:29;;;;;;;9.57;2.40;;;26.20;99.90;;;;;;5091309;28;20032;-61
2022/10/26 11:15:05;;;;;;;4.00;2.00;;;26.40;99.90;;;;;;5073862;28;20456;-61
2022/10/26 11:17:39;;;;;;;3.88;2.08;;;26.30;99.90;;;;;;5090215;28;20025;-61
2022/10/26 11:20:16;;;;;;;5.00;2.00;;;26.30;99.90;;;;;;5090654;28;20391;-61
2022/10/26 11:23:08;;;;;;;8.70;2.20;;;26.10;99.90;;;;;;5073493;28;20119;-61
2022/10/26 11:25:42;;;;;;;4.55;2.30;;;26.20;99.90;;;;;;5082343;28;20032;-61
2022/10/26 11:28:45;;;;;;;5.93;2.30;;;26.20;99.90;;;;;;5090485;28;20032;-61
2022/10/26 11:31:17;;;;;;;3.67;2.03;;;26.20;99.90;;;;;;5010185;28;20038;-61
2022/10/26 11:33:49;;;;;;;3.78;2.00;;;26.30;99.90;;;;;;5010089;28;20046;-61
2022/10/26 11:36:20;;;;;;;4.72;2.00;;;26.60;99.90;;;;;;5030141;28;20041;-61
2022/10/26 11:39:04;;;;;;;6.55;2.30;;;26.00;99.90;;;;;;5030083;28;20495;-61
2022/10/26 11:41:38;;;;;;;4.90;2.20;;;26.40;99.90;;;;;;5030015;28;20480;-61
2022/10/26 11:44:04;;;;;;;5.82;2.25;;;26.40;99.90;;;;;;5030053;28;20033;-61
2022/10/26 11:46:31;;;;;;;9.25;2.28;;;26.70;99.90;;;;;;5029979;28;20045;-61
2022/10/26 11:49:10;;;;;;;5.32;2.03;;;26.60;99.90;;;;;;5030069;28;20053;-61
2022/10/26 11:51:56;;;;;;;10.07;2.58;;;26.70;99.90;;;;;;5030112;28;20025;-61
2022/10/26 11:54:35;;;;;;;7.82;2.53;;;26.60;99.90;;;;;;5029904;28;20139;-61
2022/10/26 11:57:03;;;;;;;4.93;2.20;;;26.60;99.90;;;;;;5029944;28;20055;-61
2022/10/26 11:59:32;;;;;;;4.95;2.33;;;26.60;99.90;;;;;;5029793;28;20137;-61
2022/10/26 12:02:12;;;;;;;6.53;2.22;;;26.40;99.90;;;;;;5029261;28;20029;-61
2022/10/26 12:04:39;;;;;;;6.25;2.33;;;26.00;99.90;;;;;;5030156;28;20116;-61
2022/10/26 12:07:15;;;;;;;4.40;1.85;;;26.20;99.90;;;;;;5057806;28;20028;-61
2022/10/26 12:09:44;;;;;;;6.32;2.30;;;26.20;99.90;;;;;;5071899;28;20017;-61
2022/10/26 12:12:41;;;;;;;4.63;1.85;;;26.00;99.90;;;;;;5071837;28;20024;-61
2022/10/26 12:15:20;;;;;;;4.50;2.00;;;25.80;99.90;;;;;;5071113;28;20032;-61
2022/10/26 12:18:20;;;;;;;6.93;1.95;;;26.30;99.90;;;;;;5071680;28;20414;-61
2022/10/26 12:21:02;;;;;;;4.32;2.13;;;26.20;99.90;;;;;;5049383;28;20040;-61
2022/10/26 12:23:32;;;;;;;4.88;1.88;;;26.40;99.90;;;;;;5032770;28;20032;-61
2022/10/26 12:26:22;;;;;;;5.32;1.92;;;26.20;99.90;;;;;;5049845;28;20068;-61
2022/10/26 12:29:00;;;;;;;9.18;2.22;;;25.50;99.90;;;;;;5049209;28;20075;-61
2022/10/26 12:31:41;;;;;;;5.18;1.95;;;25.70;99.90;;;;;;5049115;28;20044;-61
2022/10/26 12:34:28;;;;;;;3.60;1.88;;;25.50;99.90;;;;;;5053501;28;20040;-61
2022/10/26 12:36:54;;;;;;;5.97;1.95;;;25.50;99.90;;;;;;5069436;28;20072;-61
2022/10/26 12:39:36;;;;;;;6.15;2.20;;;25.50;99.90;;;;;;5068988;28;20140;-61
2022/10/26 12:42:04;;;;;;;5.97;2.00;;;25.80;99.90;;;;;;5069610;28;20029;-61
2022/10/26 12:44:34;;;;;;;4.38;1.90;;;25.70;99.90;;;;;;5069323;28;20519;-61
2022/10/26 12:47:00;;;;;;;4.80;1.80;;;25.90;99.90;;;;;;5073217;28;20028;-61
2022/10/26 12:49:56;;;;;;;8.35;1.80;;;25.80;99.90;;;;;;5073170;28;20028;-61
2022/10/26 12:52:31;;;;;;;5.28;1.90;;;26.20;99.90;;;;;;5073194;28;20028;-61
2022/10/26 12:55:12;;;;;;;7.80;2.15;;;26.30;99.90;;;;;;5073227;28;20032;-61
2022/10/26 12:57:59;;;;;;;4.22;1.90;;;25.90;99.90;;;;;;5074059;28;20037;-61
2022/10/26 13:00:26;;;;;;;4.03;2.30;;;25.80;99.90;;;;;;5074982;28;20450;-60
2022/10/26 13:03:30;;;;;;;6.57;1.92;;;26.10;99.90;;;;;;5075271;28;20043;-61
2022/10/26 13:05:56;;;;;;;4.40;1.90;;;25.90;99.90;;;;;;5072774;28;20075;-61
2022/10/26 13:08:22;;;;;;;4.35;1.90;;;26.00;99.90;;;;;;5072937;28;20040;-61
2022/10/26 13:11:19;;;;;;;5.72;1.80;;;25.60;99.90;;;;;;5073125;28;20041;-61